createdAt,value
2022-10-13T00:00:55.129Z,99.40
2022-10-13T00:01:57.017Z,99.40
2022-10-13T00:03:03.395Z,99.40
2022-10-13T00:04:05.359Z,99.40
2022-10-13T00:05:07.446Z,99.40
2022-10-13T00:06:10.717Z,99.40
2022-10-13T00:07:12.511Z,99.40
2022-10-13T00:08:16.539Z,99.40
2022-10-13T00:09:20.524Z,99.40
2022-10-13T00:10:22.749Z,99.30
2022-10-13T00:11:27.352Z,99.40
2022-10-13T00:12:29.113Z,99.40
2022-10-13T00:13:30.886Z,99.40
2022-10-13T00:14:32.761Z,99.50
2022-10-13T00:15:39.524Z,99.50
2022-10-13T00:16:41.495Z,99.50
2022-10-13T00:17:43.459Z,99.50
2022-10-13T00:18:45.668Z,99.40
2022-10-13T00:19:47.396Z,99.50
2022-10-13T00:20:50.270Z,99.40
2022-10-13T00:21:52.185Z,99.40
2022-10-13T00:22:54.147Z,99.40
2022-10-13T00:23:56.873Z,99.50
2022-10-13T00:24:58.706Z,99.50
2022-10-13T00:26:04.375Z,99.60
2022-10-13T00:27:06.189Z,99.60
2022-10-13T00:28:09.829Z,99.60
2022-10-13T00:29:12.069Z,99.50
2022-10-13T00:30:13.949Z,99.50
2022-10-13T00:31:35.110Z,99.50
2022-10-13T00:32:37.139Z,99.50
2022-10-13T00:33:41.010Z,99.60
2022-10-13T00:34:42.973Z,99.60
2022-10-13T00:35:49.259Z,99.50
2022-10-13T00:36:52.778Z,99.50
2022-10-13T00:37:54.604Z,99.50
2022-10-13T00:38:57.368Z,99.50
2022-10-13T00:39:59.210Z,99.40
2022-10-13T00:41:01.234Z,99.40
2022-10-13T00:42:04.288Z,99.50
2022-10-13T00:43:17.111Z,99.40
2022-10-13T00:44:56.246Z,99.40
2022-10-13T00:45:58.031Z,99.40
2022-10-13T00:46:59.900Z,99.40
2022-10-13T00:48:02.304Z,99.40
2022-10-13T00:49:12.413Z,99.40
2022-10-13T00:50:22.623Z,99.40
2022-10-13T00:51:32.496Z,99.30
2022-10-13T00:52:34.627Z,99.30
2022-10-13T00:53:38.684Z,99.30
2022-10-13T00:54:40.679Z,99.30
2022-10-13T00:55:46.178Z,99.20
2022-10-13T00:56:50.746Z,99.30
2022-10-13T00:57:55.149Z,99.30
2022-10-13T00:59:09.736Z,99.30
2022-10-13T01:00:12.691Z,99.20
2022-10-13T01:01:14.804Z,99.20
2022-10-13T01:02:17.179Z,99.20
2022-10-13T01:03:21.262Z,99.20
2022-10-13T01:04:27.129Z,99.20
2022-10-13T01:05:29.897Z,99.20
2022-10-13T01:06:31.790Z,99.20
2022-10-13T01:07:35.680Z,99.30
2022-10-13T01:08:37.594Z,99.20
2022-10-13T01:09:39.367Z,99.20
2022-10-13T01:11:18.559Z,99.20
2022-10-13T01:12:35.002Z,99.20
2022-10-13T01:13:53.903Z,99.20
2022-10-13T01:15:13.385Z,99.20
2022-10-13T01:16:40.943Z,99.20
2022-10-13T01:18:08.391Z,99.20
2022-10-13T01:19:48.352Z,99.20
2022-10-13T01:21:00.517Z,99.10
2022-10-13T01:22:23.645Z,99.10
2022-10-13T01:23:55.695Z,99.00
2022-10-13T01:25:10.523Z,99.00
2022-10-13T01:26:14.843Z,99.10
2022-10-13T01:27:43.742Z,99.20
2022-10-13T01:29:06.963Z,99.20
2022-10-13T01:30:10.492Z,99.10
2022-10-13T01:31:24.960Z,99.20
2022-10-13T01:32:41.318Z,99.20
2022-10-13T01:34:05.595Z,99.20
2022-10-13T01:35:33.328Z,99.20
2022-10-13T01:36:55.297Z,99.20
2022-10-13T01:38:07.158Z,99.20
2022-10-13T01:39:42.934Z,99.20
2022-10-13T01:40:55.523Z,99.20
2022-10-13T01:42:11.416Z,99.30
2022-10-13T01:43:29.496Z,99.30
2022-10-13T01:44:36.415Z,99.30
2022-10-13T01:45:50.863Z,99.40
2022-10-13T01:46:54.667Z,99.50
2022-10-13T01:47:59.675Z,99.50
2022-10-13T01:49:06.674Z,99.50
2022-10-13T01:50:09.177Z,99.50
2022-10-13T01:51:19.890Z,99.40
2022-10-13T01:52:26.417Z,99.40
2022-10-13T01:53:29.971Z,99.40
2022-10-13T01:54:33.701Z,99.40
2022-10-13T01:55:35.564Z,99.40
2022-10-13T01:56:37.375Z,99.40
2022-10-13T01:57:41.874Z,99.80
2022-10-13T01:58:44.584Z,99.30
2022-10-13T01:59:46.586Z,99.30
2022-10-13T02:01:23.725Z,99.30
2022-10-13T02:02:37.427Z,99.30
2022-10-13T02:03:48.302Z,99.20
2022-10-13T02:05:08.207Z,99.30
2022-10-13T02:06:19.587Z,99.20
2022-10-13T02:07:36.251Z,99.20
2022-10-13T02:09:02.756Z,99.20
2022-10-13T02:10:04.626Z,99.40
2022-10-13T02:11:09.548Z,99.50
2022-10-13T02:12:23.381Z,99.60
2022-10-13T02:13:28.350Z,99.50
2022-10-13T02:14:34.742Z,99.50
2022-10-13T02:15:45.428Z,99.60
2022-10-13T02:16:49.407Z,99.60
2022-10-13T02:17:52.595Z,99.60
2022-10-13T02:18:56.641Z,99.70
2022-10-13T02:19:59.070Z,99.70
2022-10-13T02:21:02.981Z,99.70
2022-10-13T02:22:07.020Z,99.60
2022-10-13T02:23:15.596Z,99.60
2022-10-13T02:24:17.655Z,99.60
2022-10-13T02:25:19.458Z,99.60
2022-10-13T02:26:22.218Z,99.60
2022-10-13T02:27:32.403Z,99.70
2022-10-13T02:28:36.611Z,99.70
2022-10-13T02:29:58.739Z,99.70
2022-10-13T02:31:07.078Z,99.60
2022-10-13T02:32:09.325Z,99.60
2022-10-13T02:33:11.770Z,99.50
2022-10-13T02:34:14.538Z,99.50
2022-10-13T02:35:16.410Z,99.50
2022-10-13T02:36:18.210Z,99.50
2022-10-13T02:37:20.083Z,99.50
2022-10-13T02:38:22.327Z,99.50
2022-10-13T02:39:24.137Z,99.60
2022-10-13T02:40:26.711Z,99.60
2022-10-13T02:41:28.657Z,99.70
2022-10-13T02:42:30.466Z,99.60
2022-10-13T02:43:37.930Z,99.60
2022-10-13T02:44:40.204Z,99.70
2022-10-13T02:45:42.111Z,99.60
2022-10-13T02:46:43.905Z,99.60
2022-10-13T02:47:46.476Z,99.60
2022-10-13T02:48:48.340Z,99.60
2022-10-13T02:49:50.043Z,99.70
2022-10-13T02:50:51.897Z,99.70
2022-10-13T02:51:53.940Z,99.70
2022-10-13T02:52:55.821Z,99.70
2022-10-13T02:53:57.629Z,99.70
2022-10-13T02:54:59.435Z,99.70
2022-10-13T02:56:01.346Z,99.70
2022-10-13T02:57:03.270Z,99.70
2022-10-13T02:58:05.185Z,99.80
2022-10-13T02:59:07.097Z,99.90
2022-10-13T03:00:09.380Z,99.90
2022-10-13T03:01:14.022Z,99.90
2022-10-13T03:02:16.040Z,99.90
2022-10-13T03:03:18.094Z,99.90
2022-10-13T03:04:22.312Z,99.90
2022-10-13T03:05:24.091Z,99.90
2022-10-13T03:06:26.008Z,99.90
2022-10-13T03:07:28.065Z,99.90
2022-10-13T03:08:32.715Z,99.90
2022-10-13T03:09:35.172Z,99.90
2022-10-13T03:10:36.955Z,99.90
2022-10-13T03:11:38.863Z,99.90
2022-10-13T03:12:40.595Z,99.90
2022-10-13T03:13:42.539Z,99.90
2022-10-13T03:14:44.478Z,99.90
2022-10-13T03:15:47.621Z,99.90
2022-10-13T03:16:49.638Z,99.90
2022-10-13T03:17:55.334Z,99.90
2022-10-13T03:18:57.482Z,99.90
2022-10-13T03:19:59.707Z,99.90
2022-10-13T03:21:05.026Z,99.90
2022-10-13T03:22:06.822Z,99.90
2022-10-13T03:23:08.847Z,99.90
2022-10-13T03:24:10.801Z,99.90
2022-10-13T03:25:12.751Z,99.90
2022-10-13T03:26:17.114Z,99.90
2022-10-13T03:27:18.947Z,99.90
2022-10-13T03:28:21.617Z,99.90
2022-10-13T03:29:26.022Z,99.90
2022-10-13T03:30:27.906Z,99.90
2022-10-13T03:31:30.029Z,99.90
2022-10-13T03:32:36.853Z,99.90
2022-10-13T03:33:41.061Z,99.90
2022-10-13T03:34:43.011Z,99.90
2022-10-13T03:35:44.992Z,99.90
2022-10-13T03:36:47.196Z,99.90
2022-10-13T03:37:48.976Z,99.90
2022-10-13T03:38:50.770Z,99.90
2022-10-13T03:39:52.566Z,99.90
2022-10-13T03:40:54.455Z,99.90
2022-10-13T03:41:56.623Z,99.90
2022-10-13T03:42:58.380Z,99.90
2022-10-13T03:44:00.146Z,99.90
2022-10-13T03:45:04.171Z,99.90
2022-10-13T03:46:13.286Z,99.90
2022-10-13T03:47:16.251Z,99.90
2022-10-13T03:48:18.160Z,99.90
2022-10-13T03:49:19.968Z,99.90
2022-10-13T03:50:21.828Z,99.90
2022-10-13T03:51:24.675Z,99.90
2022-10-13T03:52:26.523Z,99.90
2022-10-13T03:53:28.433Z,99.90
2022-10-13T03:54:30.246Z,99.90
2022-10-13T03:55:32.387Z,99.90
2022-10-13T03:56:34.175Z,99.90
2022-10-13T03:57:36.277Z,99.90
2022-10-13T03:58:38.109Z,99.90
2022-10-13T03:59:42.971Z,99.90
2022-10-13T04:00:45.414Z,99.90
2022-10-13T04:01:47.319Z,99.90
2022-10-13T04:02:49.773Z,99.90
2022-10-13T04:03:53.863Z,99.90
2022-10-13T04:04:56.382Z,99.90
2022-10-13T04:06:05.651Z,99.90
2022-10-13T04:07:08.361Z,99.90
2022-10-13T04:08:10.566Z,99.90
2022-10-13T04:09:12.533Z,99.90
2022-10-13T04:10:14.463Z,99.90
2022-10-13T04:11:18.778Z,99.90
2022-10-13T04:12:25.949Z,99.90
2022-10-13T04:13:28.398Z,99.90
2022-10-13T04:14:30.394Z,99.90
2022-10-13T04:15:40.098Z,99.90
2022-10-13T04:16:41.911Z,99.90
2022-10-13T04:17:43.759Z,99.90
2022-10-13T04:18:50.245Z,99.90
2022-10-13T04:19:52.093Z,99.90
2022-10-13T04:20:53.892Z,99.90
2022-10-13T04:21:55.697Z,99.90
2022-10-13T04:22:57.520Z,99.90
2022-10-13T04:24:00.503Z,99.90
2022-10-13T04:25:02.533Z,99.90
2022-10-13T04:26:05.502Z,99.90
2022-10-13T04:27:07.272Z,99.90
2022-10-13T04:28:11.391Z,99.90
2022-10-13T04:29:13.324Z,99.90
2022-10-13T04:30:15.293Z,99.90
2022-10-13T04:31:17.511Z,99.90
2022-10-13T04:32:19.480Z,99.90
2022-10-13T04:33:21.719Z,99.90
2022-10-13T04:34:23.584Z,99.90
2022-10-13T04:35:25.397Z,99.90
2022-10-13T04:36:27.791Z,99.90
2022-10-13T04:37:29.568Z,99.90
2022-10-13T04:38:31.556Z,99.90
2022-10-13T04:39:33.487Z,99.90
2022-10-13T04:40:36.002Z,99.90
2022-10-13T04:41:37.948Z,99.90
2022-10-13T04:42:39.775Z,99.90
2022-10-13T04:43:41.702Z,99.90
2022-10-13T04:44:43.477Z,99.90
2022-10-13T04:45:46.688Z,99.90
2022-10-13T04:46:48.434Z,99.90
2022-10-13T04:47:50.684Z,99.90
2022-10-13T04:48:57.518Z,99.90
2022-10-13T04:50:06.809Z,99.90
2022-10-13T04:51:14.725Z,99.90
2022-10-13T04:52:17.466Z,99.90
2022-10-13T04:53:20.022Z,99.90
2022-10-13T04:54:22.135Z,99.90
2022-10-13T04:55:24.000Z,99.90
2022-10-13T04:56:25.961Z,99.90
2022-10-13T04:57:27.788Z,99.90
2022-10-13T04:58:29.720Z,99.90
2022-10-13T04:59:36.252Z,99.90
2022-10-13T05:00:38.245Z,99.90
2022-10-13T05:01:40.182Z,99.90
2022-10-13T05:02:45.879Z,99.90
2022-10-13T05:03:47.894Z,99.90
2022-10-13T05:04:49.845Z,99.90
2022-10-13T05:05:52.004Z,99.90
2022-10-13T05:07:16.493Z,99.90
2022-10-13T05:08:17.471Z,99.90
2022-10-13T05:09:19.327Z,99.90
2022-10-13T05:10:21.119Z,99.90
2022-10-13T05:11:24.268Z,99.90
2022-10-13T05:12:26.236Z,99.90
2022-10-13T05:13:29.835Z,99.90
2022-10-13T05:14:34.992Z,99.90
2022-10-13T05:15:39.429Z,99.90
2022-10-13T05:16:41.344Z,99.90
2022-10-13T05:17:43.193Z,99.90
2022-10-13T05:18:45.395Z,99.90
2022-10-13T05:19:48.844Z,99.90
2022-10-13T05:20:50.911Z,99.90
2022-10-13T05:21:52.803Z,99.90
2022-10-13T05:22:54.971Z,99.90
2022-10-13T05:23:57.866Z,99.90
2022-10-13T05:24:59.667Z,99.90
2022-10-13T05:26:04.072Z,99.90
2022-10-13T05:27:09.187Z,99.90
2022-10-13T05:28:11.044Z,99.90
2022-10-13T05:29:13.156Z,99.90
2022-10-13T05:30:15.083Z,99.90
2022-10-13T05:31:20.337Z,99.90
2022-10-13T05:32:22.375Z,99.90
2022-10-13T05:33:24.460Z,99.90
2022-10-13T05:34:26.281Z,99.90
2022-10-13T05:35:28.618Z,99.90
2022-10-13T05:36:33.712Z,99.90
2022-10-13T05:37:35.542Z,99.90
2022-10-13T05:38:38.210Z,99.90
2022-10-13T05:39:40.000Z,99.90
2022-10-13T05:40:41.925Z,99.90
2022-10-13T05:41:43.736Z,99.90
2022-10-13T05:42:52.568Z,99.90
2022-10-13T05:43:59.106Z,99.90
2022-10-13T05:45:01.085Z,99.90
2022-10-13T05:46:03.711Z,99.90
2022-10-13T05:47:07.707Z,99.90
2022-10-13T05:48:09.784Z,99.90
2022-10-13T05:49:11.659Z,99.90
2022-10-13T05:50:13.628Z,99.90
2022-10-13T05:51:22.621Z,99.90
2022-10-13T05:52:25.814Z,99.90
2022-10-13T05:53:30.982Z,99.90
2022-10-13T05:54:38.523Z,99.90
2022-10-13T05:55:42.821Z,99.90
2022-10-13T05:56:51.984Z,99.90
2022-10-13T05:57:53.834Z,99.90
2022-10-13T05:59:00.866Z,99.90
2022-10-13T06:00:06.726Z,99.90
2022-10-13T06:01:17.295Z,99.90
2022-10-13T06:02:21.277Z,99.90
2022-10-13T06:03:23.918Z,99.90
2022-10-13T06:04:30.694Z,99.90
2022-10-13T06:05:33.075Z,99.90
2022-10-13T06:06:35.207Z,99.90
2022-10-13T06:07:37.056Z,99.90
2022-10-13T06:08:39.095Z,99.90
2022-10-13T06:09:42.754Z,99.90
2022-10-13T06:10:45.484Z,99.90
2022-10-13T06:11:47.921Z,99.90
2022-10-13T06:12:49.942Z,99.90
2022-10-13T06:13:51.909Z,99.90
2022-10-13T06:14:53.787Z,99.90
2022-10-13T06:15:55.820Z,99.90
2022-10-13T06:16:57.849Z,99.90
2022-10-13T06:18:03.896Z,99.90
2022-10-13T06:19:06.263Z,99.90
2022-10-13T06:20:15.134Z,99.90
2022-10-13T06:21:17.323Z,99.90
2022-10-13T06:22:23.723Z,99.90
2022-10-13T06:23:25.774Z,99.90
2022-10-13T06:24:28.460Z,99.90
2022-10-13T06:25:30.699Z,99.90
2022-10-13T06:26:32.517Z,99.90
2022-10-13T06:27:34.689Z,99.90
2022-10-13T06:28:36.653Z,99.90
2022-10-13T06:29:39.123Z,99.90
2022-10-13T06:30:43.154Z,99.90
2022-10-13T06:31:45.469Z,99.90
2022-10-13T06:32:47.805Z,99.90
2022-10-13T06:33:49.820Z,99.90
2022-10-13T06:34:57.924Z,99.90
2022-10-13T06:36:06.825Z,99.90
2022-10-13T06:37:11.661Z,99.90
2022-10-13T06:38:13.785Z,99.90
2022-10-13T06:39:16.559Z,99.90
2022-10-13T06:40:19.345Z,99.90
2022-10-13T06:41:21.923Z,99.90
2022-10-13T06:42:24.096Z,99.90
2022-10-13T06:43:43.885Z,99.90
2022-10-13T06:44:45.934Z,99.90
2022-10-13T06:45:47.832Z,99.90
2022-10-13T06:46:51.734Z,99.90
2022-10-13T06:47:55.623Z,99.90
2022-10-13T06:48:57.399Z,99.90
2022-10-13T06:50:00.196Z,99.90
2022-10-13T06:51:09.047Z,99.90
2022-10-13T06:52:13.776Z,99.90
2022-10-13T06:53:15.998Z,99.90
2022-10-13T06:54:18.000Z,99.90
2022-10-13T06:55:19.955Z,99.90
2022-10-13T06:56:23.491Z,99.90
2022-10-13T06:57:25.660Z,99.90
2022-10-13T06:58:28.938Z,99.90
2022-10-13T06:59:30.805Z,99.90
2022-10-13T07:00:32.713Z,99.90
2022-10-13T07:01:37.924Z,99.90
2022-10-13T07:02:45.346Z,99.90
2022-10-13T07:03:52.001Z,99.90
2022-10-13T07:04:55.902Z,99.90
2022-10-13T07:06:05.617Z,99.90
2022-10-13T07:07:07.392Z,99.90
2022-10-13T07:08:09.767Z,99.90
2022-10-13T07:09:11.677Z,99.90
2022-10-13T07:10:13.823Z,99.90
2022-10-13T07:11:16.687Z,99.90
2022-10-13T07:12:23.621Z,99.90
2022-10-13T07:13:26.394Z,99.90
2022-10-13T07:14:28.439Z,99.90
2022-10-13T07:15:31.170Z,99.90
2022-10-13T07:16:32.950Z,99.90
2022-10-13T07:17:35.668Z,99.90
2022-10-13T07:18:37.638Z,99.90
2022-10-13T07:19:40.030Z,99.90
2022-10-13T07:20:42.078Z,99.90
2022-10-13T07:21:43.869Z,99.90
2022-10-13T07:22:46.082Z,99.90
2022-10-13T07:23:49.365Z,99.90
2022-10-13T07:24:51.199Z,99.90
2022-10-13T07:25:56.861Z,99.90
2022-10-13T07:26:58.605Z,99.90
2022-10-13T07:28:00.603Z,99.90
2022-10-13T07:29:02.870Z,99.90
2022-10-13T07:30:05.892Z,99.90
2022-10-13T07:31:13.738Z,99.90
2022-10-13T07:32:15.795Z,99.90
2022-10-13T07:33:17.740Z,99.90
2022-10-13T07:34:20.156Z,99.90
2022-10-13T07:35:25.849Z,99.90
2022-10-13T07:36:33.146Z,99.90
2022-10-13T07:37:36.062Z,99.90
2022-10-13T07:38:37.996Z,99.90
2022-10-13T07:39:40.249Z,99.90
2022-10-13T07:40:42.110Z,99.90
2022-10-13T07:41:46.419Z,99.90
2022-10-13T07:42:52.059Z,99.90
2022-10-13T07:43:57.440Z,99.90
2022-10-13T07:44:59.271Z,99.90
2022-10-13T07:46:06.415Z,99.90
2022-10-13T07:47:08.260Z,99.90
2022-10-13T07:48:10.099Z,99.90
2022-10-13T07:49:15.276Z,99.90
2022-10-13T07:50:18.580Z,99.90
2022-10-13T07:51:21.898Z,99.90
2022-10-13T07:52:23.682Z,99.90
2022-10-13T07:53:25.605Z,99.90
2022-10-13T07:54:27.763Z,99.90
2022-10-13T07:55:30.058Z,99.90
2022-10-13T07:56:31.938Z,99.90
2022-10-13T07:57:33.946Z,99.90
2022-10-13T07:58:41.316Z,99.90
2022-10-13T07:59:43.157Z,99.90
2022-10-13T08:00:59.711Z,99.90
2022-10-13T08:02:01.863Z,99.90
2022-10-13T08:03:04.220Z,99.90
2022-10-13T08:04:06.947Z,99.90
2022-10-13T08:05:09.053Z,99.90
2022-10-13T08:06:11.444Z,99.90
2022-10-13T08:07:13.645Z,99.90
2022-10-13T08:08:15.773Z,99.90
2022-10-13T08:09:17.678Z,99.90
2022-10-13T08:10:19.857Z,99.90
2022-10-13T08:11:21.757Z,99.90
2022-10-13T08:12:25.995Z,99.90
2022-10-13T08:13:27.946Z,99.90
2022-10-13T08:14:31.209Z,99.90
2022-10-13T08:15:33.118Z,99.90
2022-10-13T08:16:34.966Z,99.90
2022-10-13T08:17:37.069Z,99.90
2022-10-13T08:18:39.935Z,99.90
2022-10-13T08:19:43.906Z,99.90
2022-10-13T08:20:46.331Z,99.90
2022-10-13T08:22:07.820Z,99.90
2022-10-13T08:23:12.705Z,99.90
2022-10-13T08:24:19.553Z,99.90
2022-10-13T08:25:21.302Z,99.90
2022-10-13T08:26:25.920Z,99.90
2022-10-13T08:27:42.231Z,99.90
2022-10-13T08:29:09.494Z,99.90
2022-10-13T08:30:13.671Z,99.90
2022-10-13T08:31:16.113Z,99.90
2022-10-13T08:32:21.207Z,99.90
2022-10-13T08:33:26.377Z,99.90
2022-10-13T08:34:28.266Z,99.90
2022-10-13T08:35:34.802Z,99.90
2022-10-13T08:36:38.131Z,99.90
2022-10-13T08:37:40.053Z,99.90
2022-10-13T08:38:41.800Z,99.90
2022-10-13T08:39:44.086Z,99.90
2022-10-13T08:40:48.504Z,99.90
2022-10-13T08:41:52.651Z,99.90
2022-10-13T08:43:00.381Z,99.90
2022-10-13T08:44:49.889Z,99.90
2022-10-13T08:45:45.912Z,99.90
2022-10-13T08:47:06.263Z,99.90
2022-10-13T08:48:15.626Z,99.90
2022-10-13T08:49:18.518Z,99.90
2022-10-13T08:50:24.292Z,99.90
2022-10-13T08:51:27.611Z,99.90
2022-10-13T08:52:49.260Z,99.90
2022-10-13T08:53:51.300Z,99.90
2022-10-13T08:54:55.862Z,99.90
2022-10-13T08:56:10.796Z,99.90
2022-10-13T08:57:17.835Z,99.90
2022-10-13T08:58:34.795Z,99.90
2022-10-13T08:59:36.734Z,99.90
2022-10-13T09:00:39.502Z,99.90
2022-10-13T09:01:42.163Z,99.90
2022-10-13T09:02:45.403Z,99.90
2022-10-13T09:03:50.923Z,99.90
2022-10-13T09:04:54.184Z,99.90
2022-10-13T09:06:11.616Z,99.90
2022-10-13T09:07:19.662Z,99.90
2022-10-13T09:08:23.129Z,99.90
2022-10-13T09:09:25.017Z,99.90
2022-10-13T09:10:26.905Z,99.90
2022-10-13T09:11:33.600Z,99.90
2022-10-13T09:12:35.418Z,99.90
2022-10-13T09:13:38.941Z,99.90
2022-10-13T09:14:41.425Z,99.90
2022-10-13T09:15:45.622Z,99.90
2022-10-13T09:16:50.429Z,99.80
2022-10-13T09:18:13.397Z,99.80
2022-10-13T09:19:36.675Z,99.90
2022-10-13T09:20:41.539Z,99.90
2022-10-13T09:21:43.374Z,99.90
2022-10-13T09:23:01.582Z,99.90
2022-10-13T09:24:08.108Z,99.90
2022-10-13T09:25:17.928Z,99.90
2022-10-13T09:26:23.511Z,99.90
2022-10-13T09:27:25.287Z,99.90
2022-10-13T09:28:30.408Z,99.80
2022-10-13T09:29:32.238Z,99.70
2022-10-13T09:30:43.111Z,99.60
2022-10-13T09:31:45.278Z,99.40
2022-10-13T09:32:48.058Z,99.40
2022-10-13T09:34:02.055Z,99.40
2022-10-13T09:35:23.372Z,99.30
2022-10-13T09:36:25.627Z,99.40
2022-10-13T09:37:28.986Z,99.40
2022-10-13T09:38:31.364Z,99.30
2022-10-13T09:39:34.102Z,99.20
2022-10-13T09:40:36.822Z,99.30
2022-10-13T09:41:40.876Z,99.20
2022-10-13T09:42:47.776Z,99.10
2022-10-13T09:43:49.624Z,99.10
2022-10-13T09:45:14.634Z,98.80
2022-10-13T09:46:37.665Z,98.70
2022-10-13T09:47:39.720Z,98.70
2022-10-13T09:48:45.961Z,98.60
2022-10-13T09:50:15.846Z,98.60
2022-10-13T09:51:32.687Z,98.40
2022-10-13T09:52:37.257Z,98.20
2022-10-13T09:53:40.943Z,98.00
2022-10-13T09:55:01.057Z,97.80
2022-10-13T09:56:43.652Z,97.60
2022-10-13T09:57:49.475Z,97.60
2022-10-13T09:59:07.908Z,97.50
2022-10-13T10:00:22.104Z,97.40
2022-10-13T10:01:30.938Z,97.40
2022-10-13T10:02:37.384Z,97.20
2022-10-13T10:03:39.237Z,97.60
2022-10-13T10:04:43.240Z,96.70
2022-10-13T10:05:57.046Z,96.70
2022-10-13T10:06:58.917Z,96.60
2022-10-13T10:08:12.382Z,96.60
2022-10-13T10:09:33.826Z,96.60
2022-10-13T10:10:39.257Z,96.70
2022-10-13T10:11:46.219Z,96.90
2022-10-13T10:12:49.020Z,96.60
2022-10-13T10:13:52.710Z,96.70
2022-10-13T10:14:54.750Z,96.90
2022-10-13T10:16:11.692Z,96.90
2022-10-13T10:17:43.579Z,96.80
2022-10-13T10:18:48.304Z,96.90
2022-10-13T10:20:06.293Z,96.90
2022-10-13T10:21:25.396Z,96.30
2022-10-13T10:22:34.915Z,95.70
2022-10-13T10:23:46.022Z,95.70
2022-10-13T10:25:30.055Z,95.70
2022-10-13T10:26:57.972Z,95.70
2022-10-13T10:28:27.664Z,95.50
2022-10-13T10:29:50.768Z,95.10
2022-10-13T10:31:10.974Z,95.00
2022-10-13T10:32:31.025Z,94.70
2022-10-13T10:33:49.994Z,94.20
2022-10-13T10:34:57.308Z,93.60
2022-10-13T10:36:17.271Z,93.40
2022-10-13T10:37:25.351Z,93.60
2022-10-13T10:38:44.970Z,93.50
2022-10-13T10:39:52.700Z,93.70
2022-10-13T10:41:26.507Z,93.30
2022-10-13T10:42:51.831Z,93.40
2022-10-13T10:44:00.275Z,93.00
2022-10-13T10:45:04.515Z,93.20
2022-10-13T10:46:16.807Z,93.10
2022-10-13T10:47:27.066Z,93.20
2022-10-13T10:48:37.763Z,93.60
2022-10-13T10:49:39.932Z,93.60
2022-10-13T10:50:44.458Z,93.90
2022-10-13T10:51:47.305Z,94.00
2022-10-13T10:53:08.898Z,94.10
2022-10-13T10:54:28.464Z,94.00
2022-10-13T10:55:40.649Z,94.20
2022-10-13T10:56:59.954Z,94.20
2022-10-13T10:58:13.310Z,94.10
2022-10-13T10:59:37.388Z,94.20
2022-10-13T11:00:48.951Z,94.40
2022-10-13T11:02:03.041Z,94.30
2022-10-13T11:03:31.453Z,94.20
2022-10-13T11:04:46.883Z,94.10
2022-10-13T11:05:57.387Z,94.50
2022-10-13T11:06:59.432Z,94.70
2022-10-13T11:08:01.262Z,94.80
2022-10-13T11:09:04.970Z,95.00
2022-10-13T11:10:18.263Z,95.10
2022-10-13T11:11:27.010Z,95.30
2022-10-13T11:13:16.283Z,95.30
2022-10-13T11:14:29.830Z,95.50
2022-10-13T11:15:45.948Z,95.60
2022-10-13T11:17:07.161Z,95.60
2022-10-13T11:18:46.857Z,95.40
2022-10-13T11:19:49.440Z,95.40
2022-10-13T11:20:59.289Z,95.50
2022-10-13T11:22:01.113Z,95.50
2022-10-13T11:23:05.405Z,95.60
2022-10-13T11:24:30.312Z,95.70
2022-10-13T11:25:45.833Z,96.00
2022-10-13T11:26:48.924Z,95.30
2022-10-13T11:27:51.443Z,95.40
2022-10-13T11:28:53.592Z,95.50
2022-10-13T11:29:59.319Z,95.60
2022-10-13T11:31:12.418Z,95.50
2022-10-13T11:32:35.281Z,95.50
2022-10-13T11:33:40.967Z,95.20
2022-10-13T11:34:57.703Z,95.40
2022-10-13T11:36:34.665Z,95.60
2022-10-13T11:38:06.041Z,95.50
2022-10-13T11:39:27.918Z,95.50
2022-10-13T11:40:42.280Z,95.30
2022-10-13T11:41:54.303Z,95.30
2022-10-13T11:43:24.091Z,95.30
2022-10-13T11:44:52.384Z,95.30
2022-10-13T11:46:16.331Z,95.30
2022-10-13T11:47:54.147Z,95.00
2022-10-13T11:49:22.236Z,94.60
2022-10-13T11:50:35.935Z,94.80
2022-10-13T11:52:15.270Z,95.00
2022-10-13T11:53:23.869Z,95.00
2022-10-13T11:54:33.054Z,95.20
2022-10-13T11:55:56.682Z,95.30
2022-10-13T11:57:01.639Z,95.00
2022-10-13T11:58:21.265Z,95.20
2022-10-13T11:59:31.167Z,95.30
2022-10-13T12:00:32.965Z,95.40
2022-10-13T12:01:34.887Z,95.50
2022-10-13T12:02:37.155Z,95.50
2022-10-13T12:03:42.008Z,95.60
2022-10-13T12:05:12.087Z,95.70
2022-10-13T12:06:34.253Z,95.50
2022-10-13T12:07:40.574Z,95.80
2022-10-13T12:08:49.809Z,95.80
2022-10-13T12:09:57.057Z,95.90
2022-10-13T12:11:04.267Z,95.80
2022-10-13T12:12:16.027Z,96.10
2022-10-13T12:13:25.872Z,96.20
2022-10-13T12:14:32.587Z,96.30
2022-10-13T12:15:41.612Z,96.30
2022-10-13T12:17:59.590Z,96.20
2022-10-13T12:19:22.488Z,96.20
2022-10-13T12:22:14.191Z,96.40
2022-10-13T12:23:18.078Z,96.50
2022-10-13T12:24:24.361Z,96.50
2022-10-13T12:25:29.669Z,96.60
2022-10-13T12:26:34.747Z,96.70
2022-10-13T12:27:51.566Z,96.70
2022-10-13T12:28:56.934Z,97.20
2022-10-13T12:30:02.793Z,96.80
2022-10-13T12:31:16.617Z,96.80
2022-10-13T12:32:32.210Z,96.70
2022-10-13T12:33:35.605Z,96.60
2022-10-13T12:34:43.668Z,96.60
2022-10-13T12:35:45.727Z,96.70
2022-10-13T12:37:16.205Z,96.90
2022-10-13T12:38:19.898Z,96.90
2022-10-13T12:39:22.439Z,96.80
2022-10-13T12:40:25.379Z,96.80
2022-10-13T12:41:34.287Z,96.80
2022-10-13T12:42:38.452Z,96.90
2022-10-13T12:43:42.367Z,96.90
2022-10-13T12:44:45.169Z,97.00
2022-10-13T12:45:47.371Z,97.00
2022-10-13T12:46:52.521Z,97.00
2022-10-13T12:47:55.773Z,96.90
2022-10-13T12:49:12.403Z,96.90
2022-10-13T12:50:29.191Z,96.90
2022-10-13T12:51:31.744Z,96.90
2022-10-13T12:52:35.236Z,97.00
2022-10-13T12:53:38.316Z,97.00
2022-10-13T12:54:56.373Z,97.00
2022-10-13T12:56:00.907Z,96.90
2022-10-13T12:57:19.685Z,96.90
2022-10-13T12:58:32.417Z,96.60
2022-10-13T12:59:34.752Z,96.40
2022-10-13T13:00:37.377Z,96.60
2022-10-13T13:01:41.063Z,97.20
2022-10-13T13:02:49.926Z,96.80
2022-10-13T13:03:58.710Z,96.90
2022-10-13T13:05:00.960Z,97.00
2022-10-13T13:06:10.983Z,96.90
2022-10-13T13:07:52.387Z,96.80
2022-10-13T13:09:33.251Z,96.80
2022-10-13T13:10:35.206Z,96.90
2022-10-13T13:11:39.069Z,96.90
2022-10-13T13:12:48.756Z,96.90
2022-10-13T13:13:51.532Z,97.00
2022-10-13T13:14:55.439Z,97.00
2022-10-13T13:16:23.355Z,96.90
2022-10-13T13:17:57.813Z,96.70
2022-10-13T13:18:55.104Z,96.80
2022-10-13T13:19:58.240Z,96.90
2022-10-13T13:21:02.111Z,97.00
2022-10-13T13:22:07.470Z,97.10
2022-10-13T13:23:09.477Z,97.10
2022-10-13T13:24:28.182Z,97.20
2022-10-13T13:25:33.810Z,97.10
2022-10-13T13:26:35.735Z,97.20
2022-10-13T13:27:40.190Z,97.30
2022-10-13T13:28:51.420Z,97.30
2022-10-13T13:29:55.098Z,97.40
2022-10-13T13:30:57.183Z,97.50
2022-10-13T13:31:59.105Z,97.50
2022-10-13T13:33:01.149Z,97.40
2022-10-13T13:34:03.032Z,97.40
2022-10-13T13:35:06.360Z,97.10
2022-10-13T13:36:25.736Z,97.00
2022-10-13T13:37:35.627Z,97.00
2022-10-13T13:38:37.477Z,97.00
2022-10-13T13:39:40.807Z,96.90
2022-10-13T13:40:44.177Z,96.90
2022-10-13T13:41:48.067Z,96.70
2022-10-13T13:42:52.991Z,96.60
2022-10-13T13:43:54.896Z,96.40
2022-10-13T13:45:03.351Z,96.40
2022-10-13T13:46:06.427Z,96.20
2022-10-13T13:47:22.946Z,96.20
2022-10-13T13:48:26.647Z,96.00
2022-10-13T13:49:30.735Z,96.10
2022-10-13T13:50:35.610Z,96.10
2022-10-13T13:51:37.867Z,96.10
2022-10-13T13:52:39.771Z,95.80
2022-10-13T13:53:44.909Z,95.60
2022-10-13T13:54:48.101Z,95.70
2022-10-13T13:55:50.092Z,95.90
2022-10-13T13:56:58.587Z,96.00
2022-10-13T13:58:00.848Z,95.50
2022-10-13T13:59:02.724Z,95.70
2022-10-13T14:00:06.096Z,95.70
2022-10-13T14:01:16.228Z,95.80
2022-10-13T14:02:23.834Z,95.90
2022-10-13T14:03:28.756Z,95.90
2022-10-13T14:04:30.810Z,95.90
2022-10-13T14:05:32.795Z,95.80
2022-10-13T14:06:35.090Z,95.60
2022-10-13T14:07:37.180Z,95.60
2022-10-13T14:08:42.791Z,95.60
2022-10-13T14:09:45.709Z,95.60
2022-10-13T14:10:48.906Z,95.70
2022-10-13T14:11:53.069Z,95.60
2022-10-13T14:12:55.208Z,95.70
2022-10-13T14:14:02.053Z,95.80
2022-10-13T14:15:04.628Z,95.90
2022-10-13T14:16:07.047Z,95.90
2022-10-13T14:17:09.045Z,96.00
2022-10-13T14:18:12.948Z,96.10
2022-10-13T14:19:14.920Z,96.00
2022-10-13T14:20:16.812Z,95.90
2022-10-13T14:21:20.827Z,95.90
2022-10-13T14:22:24.994Z,96.00
2022-10-13T14:23:27.279Z,95.90
2022-10-13T14:24:32.495Z,96.00